Terminal Aerodrome Forecast
Issued by NWS

Home | Current Version | Previous Version | Text Only | Print | Product List | Glossary Off
Versions: 1 2 3 4 5 6 7 8 9 10 11 12 13 14 15 16 17 18 19 20 21 22 23 24 25 26 27

000
FTUS43 KLOT 172050 AAB
TAFDPA
TAF AMD
KDPA 172050Z 1721/1818 22010KT 1SM -SN OVC015
      TEMPO 1721/1723 1/2SM SHSN OVC006
     FM180000 27012G20KT P6SM BKN015
     FM180400 26007KT P6SM FEW250
     FM181100 17004KT 2SM BR SCT250
     FM181600 17011KT P6SM SCT250=

USA.gov is the U.S. government's official web portal to all federal, state and local government web resources and services.